createdAt,value
2022-08-24T00:01:57.350Z,97146.66
2022-08-24T00:04:25.991Z,97146.00
2022-08-24T00:06:54.379Z,97168.34
2022-08-24T00:09:22.785Z,97172.75
2022-08-24T00:11:51.168Z,97182.09
2022-08-24T00:14:19.799Z,97183.25
2022-08-24T00:16:48.365Z,97177.25
2022-08-24T00:19:17.393Z,97181.81
2022-08-24T00:21:45.803Z,97188.63
2022-08-24T00:24:14.891Z,97199.31
2022-08-24T00:26:43.251Z,97208.91
2022-08-24T00:29:11.539Z,97218.81
2022-08-24T00:31:40.055Z,97226.06
2022-08-24T00:34:08.641Z,97233.75
2022-08-24T00:36:37.317Z,97231.91
2022-08-24T00:39:06.359Z,97237.28
2022-08-24T00:41:35.322Z,97255.53
2022-08-24T00:44:04.777Z,97245.06
2022-08-24T00:46:49.012Z,97248.63
2022-08-24T00:49:35.420Z,97249.44
2022-08-24T00:52:20.354Z,97248.97
2022-08-24T00:54:56.074Z,97250.50
2022-08-24T00:57:27.502Z,97255.94
2022-08-24T01:00:01.142Z,97257.97
2022-08-24T01:02:34.176Z,97248.72
2022-08-24T01:05:08.538Z,97245.84
2022-08-24T01:07:37.582Z,97260.81
2022-08-24T01:10:11.358Z,97267.19
2022-08-24T01:12:42.327Z,97273.63
2022-08-24T01:15:26.833Z,97274.56
2022-08-24T01:18:13.619Z,97287.03
2022-08-24T01:21:02.849Z,97300.47
2022-08-24T01:23:36.241Z,97297.94
2022-08-24T01:26:07.013Z,97293.28
2022-08-24T01:28:37.074Z,97299.53
2022-08-24T01:31:05.579Z,97295.09
2022-08-24T01:33:34.000Z,97298.50
2022-08-24T01:36:19.015Z,97296.50
2022-08-24T01:38:48.013Z,97304.56
2022-08-24T01:41:16.684Z,97313.72
2022-08-24T01:43:45.043Z,97314.34
2022-08-24T01:46:13.394Z,97313.75
2022-08-24T01:48:41.825Z,97316.84
2022-08-24T01:51:10.258Z,97313.16
2022-08-24T01:53:38.745Z,97316.09
2022-08-24T01:56:07.299Z,97309.28
2022-08-24T01:58:36.374Z,97322.91
2022-08-24T02:01:04.945Z,97321.56
2022-08-24T02:03:33.247Z,97325.22
2022-08-24T02:06:01.803Z,97310.88
2022-08-24T02:08:32.333Z,97299.38
2022-08-24T02:11:00.601Z,97309.19
2022-08-24T02:13:28.990Z,97310.03
2022-08-24T02:15:58.225Z,97310.09
2022-08-24T02:18:26.759Z,97313.09
2022-08-24T02:20:55.121Z,97317.94
2022-08-24T02:23:23.471Z,97317.56
2022-08-24T02:25:52.460Z,97328.72
2022-08-24T02:28:20.945Z,97325.00
2022-08-24T02:30:49.579Z,97327.22
2022-08-24T02:33:18.788Z,97318.88
2022-08-24T02:35:47.320Z,97320.16
2022-08-24T02:38:15.778Z,97323.03
2022-08-24T02:40:44.155Z,97325.63
2022-08-24T02:43:12.760Z,97327.06
2022-08-24T02:45:42.059Z,97321.91
2022-08-24T02:48:10.931Z,97324.09
2022-08-24T02:50:44.123Z,97321.56
2022-08-24T02:53:14.354Z,97322.53
2022-08-24T02:55:43.415Z,97326.97
2022-08-24T02:58:12.572Z,97340.72
2022-08-24T03:00:41.971Z,97336.25
2022-08-24T03:03:11.635Z,97334.88
2022-08-24T03:05:40.355Z,97329.69
2022-08-24T03:08:09.311Z,97334.22
2022-08-24T03:10:38.121Z,97318.41
2022-08-24T03:13:08.040Z,97323.38
2022-08-24T03:15:36.640Z,97330.66
2022-08-24T03:18:05.464Z,97325.41
2022-08-24T03:20:33.850Z,97334.22
2022-08-24T03:23:02.370Z,97340.03
2022-08-24T03:25:31.015Z,97348.31
2022-08-24T03:27:59.226Z,97349.66
2022-08-24T03:30:27.690Z,97341.53
2022-08-24T03:32:57.194Z,97339.84
2022-08-24T03:35:25.530Z,97337.44
2022-08-24T03:37:55.013Z,97341.84
2022-08-24T03:40:24.997Z,97343.69
2022-08-24T03:42:57.089Z,97343.00
2022-08-24T03:45:25.679Z,97344.44
2022-08-24T03:47:54.270Z,97345.22
2022-08-24T03:50:22.850Z,97357.28
2022-08-24T03:52:51.769Z,97353.59
2022-08-24T03:55:20.687Z,97352.31
2022-08-24T03:57:49.221Z,97355.75
2022-08-24T04:00:17.812Z,97352.06
2022-08-24T04:02:54.986Z,97350.44
2022-08-24T04:05:25.860Z,97349.56
2022-08-24T04:07:54.856Z,97365.91
2022-08-24T04:10:23.268Z,97360.59
2022-08-24T04:12:51.653Z,97365.91
2022-08-24T04:15:25.494Z,97356.44
2022-08-24T04:17:53.771Z,97361.13
2022-08-24T04:20:22.341Z,97365.25
2022-08-24T04:22:52.497Z,97365.34
2022-08-24T04:25:25.108Z,97375.19
2022-08-24T04:27:53.847Z,97361.06
2022-08-24T04:30:23.838Z,97369.34
2022-08-24T04:33:10.561Z,97365.53
2022-08-24T04:35:45.619Z,97368.84
2022-08-24T04:38:14.429Z,97367.28
2022-08-24T04:40:49.288Z,97356.94
2022-08-24T04:43:19.973Z,97366.53
2022-08-24T04:45:50.360Z,97365.97
2022-08-24T04:48:19.392Z,97365.06
2022-08-24T04:50:48.236Z,97366.88
2022-08-24T04:53:16.727Z,97368.06
2022-08-24T04:55:52.864Z,97362.97
2022-08-24T04:58:21.292Z,97356.28
2022-08-24T05:00:49.563Z,97359.16
2022-08-24T05:03:18.006Z,97353.66
2022-08-24T05:05:49.465Z,97363.41
2022-08-24T05:08:19.561Z,97363.38
2022-08-24T05:10:48.386Z,97369.88
2022-08-24T05:13:16.849Z,97370.75
2022-08-24T05:15:46.990Z,97366.50
2022-08-24T05:18:16.420Z,97370.34
2022-08-24T05:20:46.561Z,97365.22
2022-08-24T05:23:15.971Z,97361.25
2022-08-24T05:25:44.308Z,97363.66
2022-08-24T05:28:13.190Z,97369.50
2022-08-24T05:30:42.873Z,97359.03
2022-08-24T05:33:11.610Z,97351.41
2022-08-24T05:35:43.731Z,97355.19
2022-08-24T05:38:13.790Z,97367.59
2022-08-24T05:40:43.529Z,97355.63
2022-08-24T05:43:12.496Z,97358.63
2022-08-24T05:45:43.126Z,97350.66
2022-08-24T05:48:12.529Z,97357.63
2022-08-24T05:51:10.368Z,97347.50
2022-08-24T05:53:48.370Z,97339.66
2022-08-24T05:56:17.516Z,97353.66
2022-08-24T05:58:46.091Z,97343.25
2022-08-24T06:01:21.205Z,97345.72
2022-08-24T06:03:50.146Z,97347.69
2022-08-24T06:06:20.331Z,97344.00
2022-08-24T06:08:50.141Z,97341.69
2022-08-24T06:11:30.209Z,97345.88
2022-08-24T06:14:12.166Z,97344.47
2022-08-24T06:16:52.826Z,97341.47
2022-08-24T06:19:22.608Z,97346.66
2022-08-24T06:21:52.378Z,97347.31
2022-08-24T06:24:41.819Z,97346.75
2022-08-24T06:27:22.608Z,97347.78
2022-08-24T06:29:55.434Z,97352.84
2022-08-24T06:32:47.268Z,97348.16
2022-08-24T06:35:33.726Z,97340.34
2022-08-24T06:38:02.791Z,97349.41
2022-08-24T06:40:31.230Z,97351.28
2022-08-24T06:43:03.186Z,97357.38
2022-08-24T06:45:48.841Z,97347.66
2022-08-24T06:48:19.724Z,97349.81
2022-08-24T06:50:49.282Z,97343.97
2022-08-24T06:53:17.876Z,97336.03
2022-08-24T06:55:53.725Z,97348.63
2022-08-24T06:58:23.594Z,97347.78
2022-08-24T07:00:52.249Z,97355.44
2022-08-24T07:03:23.888Z,97347.22
2022-08-24T07:06:13.902Z,97347.59
2022-08-24T07:08:43.444Z,97353.78
2022-08-24T07:11:15.182Z,97346.53
2022-08-24T07:13:45.248Z,97354.56
2022-08-24T07:16:15.607Z,97352.38
2022-08-24T07:18:49.963Z,97351.09
2022-08-24T07:21:21.462Z,97350.91
2022-08-24T07:23:55.578Z,97352.84
2022-08-24T07:26:24.835Z,97358.31
2022-08-24T07:29:05.261Z,97363.38
2022-08-24T07:31:40.634Z,97360.03
2022-08-24T07:34:18.199Z,97362.00
2022-08-24T07:36:46.869Z,97368.78
2022-08-24T07:39:15.703Z,97362.41
2022-08-24T07:42:11.640Z,97363.44
2022-08-24T07:44:33.461Z,97359.84
2022-08-24T07:47:20.755Z,97354.69
2022-08-24T07:49:51.833Z,97350.91
2022-08-24T07:52:21.405Z,97352.28
2022-08-24T07:54:50.073Z,97345.97
2022-08-24T07:57:18.967Z,97350.75
2022-08-24T07:59:47.940Z,97352.69
2022-08-24T08:02:17.645Z,97351.53
2022-08-24T08:04:50.463Z,97354.97
2022-08-24T08:07:20.601Z,97359.50
2022-08-24T08:09:51.144Z,97353.03
2022-08-24T08:12:19.835Z,97352.69
2022-08-24T08:14:58.123Z,97354.59
2022-08-24T08:17:26.705Z,97350.88
2022-08-24T08:19:55.260Z,97351.66
2022-08-24T08:22:44.020Z,97347.06
2022-08-24T08:25:32.403Z,97346.06
2022-08-24T08:28:13.047Z,97336.88
2022-08-24T08:30:54.008Z,97344.53
2022-08-24T08:33:22.721Z,97321.00
2022-08-24T08:36:03.449Z,97325.88
2022-08-24T08:38:32.175Z,97336.91
2022-08-24T08:41:24.497Z,97344.00
2022-08-24T08:44:41.268Z,97353.97
2022-08-24T08:47:25.368Z,97344.66
2022-08-24T08:50:14.728Z,97341.91
2022-08-24T08:53:05.278Z,97331.59
2022-08-24T08:55:41.377Z,97346.44
2022-08-24T08:58:46.780Z,97347.38
2022-08-24T09:01:54.486Z,97352.84
2022-08-24T09:04:36.782Z,97347.69
2022-08-24T09:07:26.549Z,97356.19
2022-08-24T09:10:23.937Z,97355.25
2022-08-24T09:13:11.650Z,97354.97
2022-08-24T09:16:33.076Z,97354.22
2022-08-24T09:20:00.460Z,97358.72
2022-08-24T09:22:29.760Z,97355.72
2022-08-24T09:25:26.487Z,97356.59
2022-08-24T09:28:46.789Z,97360.34
2022-08-24T09:31:29.174Z,97367.53
2022-08-24T09:34:20.336Z,97369.16
2022-08-24T09:36:53.532Z,97364.47
2022-08-24T09:39:33.621Z,97359.00
2022-08-24T09:42:32.453Z,97357.94
2022-08-24T09:45:19.423Z,97360.84
2022-08-24T09:48:00.609Z,97354.56
2022-08-24T09:50:47.611Z,97359.25
2022-08-24T09:53:33.916Z,97360.22
2022-08-24T09:56:25.476Z,97356.50
2022-08-24T09:59:19.786Z,97349.63
2022-08-24T10:02:18.744Z,97347.00
2022-08-24T10:05:05.954Z,97346.81
2022-08-24T10:07:59.274Z,97354.47
2022-08-24T10:10:38.594Z,97346.28
2022-08-24T10:13:18.372Z,97351.66
2022-08-24T10:16:08.964Z,97342.56
2022-08-24T10:18:58.867Z,97339.75
2022-08-24T10:21:55.423Z,97338.59
2022-08-24T10:24:45.388Z,97330.75
2022-08-24T10:27:13.626Z,97328.59
2022-08-24T10:30:03.630Z,97324.13
2022-08-24T10:32:53.610Z,97322.66
2022-08-24T10:36:08.329Z,97320.16
2022-08-24T10:39:24.214Z,97326.13
2022-08-24T10:41:58.918Z,97317.03
2022-08-24T10:44:44.241Z,97313.59
2022-08-24T10:47:28.841Z,97312.53
2022-08-24T10:50:32.391Z,97317.16
2022-08-24T10:53:17.566Z,97312.63
2022-08-24T10:55:47.412Z,97315.94
2022-08-24T10:58:34.488Z,97317.09
2022-08-24T11:01:23.668Z,97311.97
2022-08-24T11:04:00.292Z,97324.44
2022-08-24T11:06:40.826Z,97321.56
2022-08-24T11:09:18.651Z,97327.00
2022-08-24T11:11:52.173Z,97322.47
2022-08-24T11:14:26.241Z,97320.41
2022-08-24T11:16:57.922Z,97316.84
2022-08-24T11:19:26.595Z,97314.75
2022-08-24T11:21:58.123Z,97305.19
2022-08-24T11:24:47.085Z,97306.13
2022-08-24T11:27:18.140Z,97308.13
2022-08-24T11:29:52.473Z,97318.81
2022-08-24T11:32:29.603Z,97311.03
2022-08-24T11:35:16.231Z,97315.31
2022-08-24T11:37:45.361Z,97306.63
2022-08-24T11:40:14.025Z,97310.09
2022-08-24T11:43:06.109Z,97306.47
2022-08-24T11:45:49.222Z,97301.34
2022-08-24T11:48:29.860Z,97302.75
2022-08-24T11:51:27.475Z,97292.50
2022-08-24T11:54:27.422Z,97301.50
2022-08-24T11:56:55.743Z,97297.94
2022-08-24T11:59:33.091Z,97304.06
2022-08-24T12:02:05.748Z,97301.19
2022-08-24T12:04:44.093Z,97304.06
2022-08-24T12:07:35.011Z,97294.59
2022-08-24T12:10:09.317Z,97299.56
2022-08-24T12:12:59.258Z,97298.81
2022-08-24T12:15:43.819Z,97282.41
2022-08-24T12:18:39.567Z,97280.97
2022-08-24T12:21:12.704Z,97274.34
2022-08-24T12:23:46.492Z,97267.00
2022-08-24T12:26:29.990Z,97280.19
2022-08-24T12:29:06.418Z,97284.53
2022-08-24T12:31:51.423Z,97285.75
2022-08-24T12:34:37.788Z,97291.00
2022-08-24T12:37:16.491Z,97279.94
2022-08-24T12:39:55.361Z,97288.19
2022-08-24T12:42:30.029Z,97294.72
2022-08-24T12:45:02.094Z,97298.72
2022-08-24T12:47:42.029Z,97302.75
2022-08-24T12:50:24.984Z,97309.25
2022-08-24T12:53:09.019Z,97312.09
2022-08-24T12:55:53.458Z,97313.59
2022-08-24T12:58:54.379Z,97320.22
2022-08-24T13:01:25.630Z,97318.66
2022-08-24T13:04:07.801Z,97315.63
2022-08-24T13:07:00.517Z,97314.88
2022-08-24T13:09:47.906Z,97312.50
2022-08-24T13:12:47.932Z,97301.47
2022-08-24T13:15:28.826Z,97301.34
2022-08-24T13:18:10.134Z,97302.13
2022-08-24T13:20:46.001Z,97301.69
2022-08-24T13:23:16.836Z,97290.69
2022-08-24T13:25:48.419Z,97291.94
2022-08-24T13:28:22.844Z,97277.69
2022-08-24T13:30:54.235Z,97280.81
2022-08-24T13:33:58.213Z,97276.59
2022-08-24T13:36:45.151Z,97281.09
2022-08-24T13:39:32.284Z,97284.47
2022-08-24T13:42:21.923Z,97285.72
2022-08-24T13:44:53.280Z,97284.06
2022-08-24T13:47:52.808Z,97275.25
2022-08-24T13:50:34.625Z,97277.06
2022-08-24T13:53:42.149Z,97275.91
2022-08-24T13:56:33.094Z,97265.53
2022-08-24T13:59:28.035Z,97259.81
2022-08-24T14:01:59.652Z,97272.25
2022-08-24T14:04:55.430Z,97271.78
2022-08-24T14:08:10.707Z,97270.19
2022-08-24T14:10:45.011Z,97271.47
2022-08-24T14:13:32.567Z,97274.41
2022-08-24T14:16:30.244Z,97275.03
2022-08-24T14:19:23.299Z,97275.84
2022-08-24T14:22:10.254Z,97276.72
2022-08-24T14:24:48.110Z,97277.66
2022-08-24T14:27:46.744Z,97269.91
2022-08-24T14:30:17.850Z,97263.13
2022-08-24T14:33:01.150Z,97268.41
2022-08-24T14:35:40.325Z,97262.94
2022-08-24T14:38:21.556Z,97269.91
2022-08-24T14:41:18.678Z,97275.97
2022-08-24T14:44:31.305Z,97268.53
2022-08-24T14:47:15.203Z,97274.91
2022-08-24T14:50:08.012Z,97277.00
2022-08-24T14:52:39.311Z,97264.97
2022-08-24T14:55:26.223Z,97266.19
2022-08-24T14:58:23.766Z,97273.31
2022-08-24T15:01:24.692Z,97268.09
2022-08-24T15:04:30.778Z,97266.63
2022-08-24T15:07:36.967Z,97264.97
2022-08-24T15:10:14.473Z,97268.00
2022-08-24T15:13:02.819Z,97272.41
2022-08-24T15:15:55.389Z,97273.66
2022-08-24T15:18:40.789Z,97272.75
2022-08-24T15:21:59.683Z,97277.19
2022-08-24T15:25:00.224Z,97280.25
2022-08-24T15:27:50.427Z,97265.75
2022-08-24T15:30:30.950Z,97276.25
2022-08-24T15:33:08.146Z,97271.63
2022-08-24T15:35:44.395Z,97275.34
2022-08-24T15:38:31.331Z,97263.72
2022-08-24T15:41:12.537Z,97265.88
2022-08-24T15:44:00.051Z,97267.16
2022-08-24T15:46:43.409Z,97262.63
2022-08-24T15:49:19.109Z,97266.03
2022-08-24T15:51:53.613Z,97262.28
2022-08-24T15:54:30.383Z,97267.28
2022-08-24T15:57:24.571Z,97262.91
2022-08-24T15:59:54.936Z,97263.25
2022-08-24T16:02:31.187Z,97267.47
2022-08-24T16:05:28.083Z,97270.09
2022-08-24T16:08:02.558Z,97274.28
2022-08-24T16:10:43.026Z,97264.06
2022-08-24T16:13:17.981Z,97264.34
2022-08-24T16:16:05.477Z,97260.66
2022-08-24T16:18:49.860Z,97263.06
2022-08-24T16:21:39.566Z,97264.34
2022-08-24T16:24:21.543Z,97266.81
2022-08-24T16:26:50.600Z,97265.53
2022-08-24T16:29:37.899Z,97277.34
2022-08-24T16:32:22.081Z,97283.38
2022-08-24T16:35:11.168Z,97275.97
2022-08-24T16:37:40.210Z,97276.19
2022-08-24T16:40:09.323Z,97269.44
2022-08-24T16:42:38.176Z,97275.25
2022-08-24T16:45:10.425Z,97273.03
2022-08-24T16:47:39.684Z,97278.50
2022-08-24T16:50:08.390Z,97281.44
2022-08-24T16:52:36.841Z,97285.94
2022-08-24T16:55:05.831Z,97286.06
2022-08-24T16:57:37.840Z,97303.41
2022-08-24T17:00:11.271Z,97295.78
2022-08-24T17:02:40.707Z,97301.09
2022-08-24T17:05:09.426Z,97293.78
2022-08-24T17:07:37.879Z,97299.53
2022-08-24T17:10:07.722Z,97297.75
2022-08-24T17:12:37.358Z,97305.72
2022-08-24T17:15:06.861Z,97312.28
2022-08-24T17:17:38.518Z,97318.59
2022-08-24T17:20:09.786Z,97318.75
2022-08-24T17:22:38.594Z,97313.75
2022-08-24T17:25:08.168Z,97320.78
2022-08-24T17:27:36.587Z,97314.59
2022-08-24T17:30:05.569Z,97315.50
2022-08-24T17:32:34.701Z,97317.34
2022-08-24T17:35:05.407Z,97322.31
2022-08-24T17:37:37.288Z,97321.09
2022-08-24T17:40:06.127Z,97315.81
2022-08-24T17:42:50.085Z,97321.69
2022-08-24T17:45:23.170Z,97319.63
2022-08-24T17:47:54.982Z,97327.09
2022-08-24T17:50:24.810Z,97334.03
2022-08-24T17:53:00.490Z,97346.16
2022-08-24T17:55:29.241Z,97346.38
2022-08-24T17:57:58.957Z,97348.50
2022-08-24T18:00:27.465Z,97355.97
2022-08-24T18:02:55.922Z,97358.44
2022-08-24T18:05:27.156Z,97363.22
2022-08-24T18:07:58.328Z,97371.44
2022-08-24T18:10:28.948Z,97376.13
2022-08-24T18:12:59.988Z,97394.06
2022-08-24T18:15:35.946Z,97391.66
2022-08-24T18:18:09.623Z,97385.94
2022-08-24T18:20:52.036Z,97384.78
2022-08-24T18:23:24.572Z,97392.44
2022-08-24T18:25:57.968Z,97381.88
2022-08-24T18:28:31.541Z,97380.69
2022-08-24T18:31:13.656Z,97374.16
2022-08-24T18:33:49.421Z,97385.69
2022-08-24T18:36:30.067Z,97382.84
2022-08-24T18:39:06.520Z,97376.19
2022-08-24T18:41:41.102Z,97382.34
2022-08-24T18:44:15.435Z,97394.47
2022-08-24T18:46:45.240Z,97394.78
2022-08-24T18:49:17.432Z,97400.66
2022-08-24T18:51:54.105Z,97390.44
2022-08-24T18:54:24.681Z,97378.34
2022-08-24T18:56:53.666Z,97388.97
2022-08-24T18:59:22.998Z,97391.03
2022-08-24T19:02:15.705Z,97381.34
2022-08-24T19:04:47.746Z,97389.63
2022-08-24T19:07:17.015Z,97394.56
2022-08-24T19:09:47.995Z,97405.47
2022-08-24T19:12:16.412Z,97408.28
2022-08-24T19:14:50.886Z,97413.47
2022-08-24T19:17:19.472Z,97411.91
2022-08-24T19:19:48.153Z,97415.81
2022-08-24T19:22:17.720Z,97413.78
2022-08-24T19:24:50.470Z,97413.19
2022-08-24T19:27:22.128Z,97418.06
2022-08-24T19:29:55.804Z,97418.06
2022-08-24T19:32:27.950Z,97427.81
2022-08-24T19:35:00.104Z,97426.44
2022-08-24T19:37:29.341Z,97431.03
2022-08-24T19:39:58.943Z,97420.25
2022-08-24T19:42:29.993Z,97417.81
2022-08-24T19:45:25.472Z,97423.50
2022-08-24T19:47:53.988Z,97414.47
2022-08-24T19:50:28.316Z,97420.75
2022-08-24T19:53:01.475Z,97423.25
2022-08-24T19:55:30.332Z,97423.66
2022-08-24T19:58:10.072Z,97431.88
2022-08-24T20:00:48.327Z,97421.22
2022-08-24T20:03:21.312Z,97425.81
2022-08-24T20:05:49.643Z,97428.16
2022-08-24T20:08:21.100Z,97418.19
2022-08-24T20:10:58.974Z,97424.06
2022-08-24T20:13:28.922Z,97419.19
2022-08-24T20:15:57.713Z,97414.41
2022-08-24T20:18:56.435Z,97405.56
2022-08-24T20:21:30.078Z,97402.50
2022-08-24T20:24:01.014Z,97402.19
2022-08-24T20:26:32.365Z,97391.84
2022-08-24T20:29:00.709Z,97397.41
2022-08-24T20:31:29.416Z,97394.47
2022-08-24T20:33:59.591Z,97387.84
2022-08-24T20:36:34.190Z,97391.41
2022-08-24T20:39:03.232Z,97392.16
2022-08-24T20:41:32.687Z,97392.16
2022-08-24T20:44:01.886Z,97386.94
2022-08-24T20:46:30.392Z,97378.66
2022-08-24T20:48:58.971Z,97385.69
2022-08-24T20:51:27.480Z,97382.47
2022-08-24T20:53:56.173Z,97387.56
2022-08-24T20:56:35.873Z,97387.09
2022-08-24T20:59:06.640Z,97388.16
2022-08-24T21:01:35.171Z,97399.47
2022-08-24T21:04:05.529Z,97386.78
2022-08-24T21:06:34.411Z,97389.03
2022-08-24T21:09:03.993Z,97396.13
2022-08-24T21:11:35.446Z,97403.84
2022-08-24T21:14:06.588Z,97394.81
2022-08-24T21:16:36.485Z,97386.31
2022-08-24T21:19:05.295Z,97387.88
2022-08-24T21:21:33.905Z,97384.56
2022-08-24T21:24:05.419Z,97378.75
2022-08-24T21:26:34.698Z,97378.34
2022-08-24T21:29:04.488Z,97380.38
2022-08-24T21:31:33.921Z,97376.41
2022-08-24T21:34:21.759Z,97373.28
2022-08-24T21:36:50.109Z,97377.00
2022-08-24T21:39:20.876Z,97386.53
2022-08-24T21:41:49.218Z,97378.16
2022-08-24T21:44:17.520Z,97383.53
2022-08-24T21:46:48.157Z,97388.69
2022-08-24T21:49:16.488Z,97393.94
2022-08-24T21:51:45.405Z,97392.41
2022-08-24T21:54:13.741Z,97392.97
2022-08-24T21:56:42.117Z,97386.84
2022-08-24T21:59:10.641Z,97381.06
2022-08-24T22:01:39.062Z,97376.22
2022-08-24T22:04:09.134Z,97384.00
2022-08-24T22:06:37.677Z,97391.13
2022-08-24T22:09:07.394Z,97382.66
2022-08-24T22:11:35.832Z,97375.16
2022-08-24T22:14:04.300Z,97370.09
2022-08-24T22:16:32.889Z,97369.50
2022-08-24T22:19:05.484Z,97371.31
2022-08-24T22:21:36.083Z,97365.03
2022-08-24T22:24:04.793Z,97365.44
2022-08-24T22:26:33.425Z,97360.06
2022-08-24T22:29:02.127Z,97362.78
2022-08-24T22:31:32.126Z,97352.47
2022-08-24T22:34:01.738Z,97348.84
2022-08-24T22:36:30.178Z,97341.53
2022-08-24T22:38:58.649Z,97332.22
2022-08-24T22:41:27.576Z,97339.41
2022-08-24T22:44:15.027Z,97338.63
2022-08-24T22:46:44.614Z,97321.00
2022-08-24T22:49:13.414Z,97317.88
2022-08-24T22:51:41.899Z,97321.28
2022-08-24T22:54:10.410Z,97323.81
2022-08-24T22:56:41.284Z,97321.50
2022-08-24T22:59:11.322Z,97323.81
2022-08-24T23:01:41.060Z,97316.28
2022-08-24T23:04:11.731Z,97310.84
2022-08-24T23:06:41.104Z,97307.63
2022-08-24T23:09:09.625Z,97309.41
2022-08-24T23:11:38.140Z,97310.78
2022-08-24T23:14:07.248Z,97306.69
2022-08-24T23:16:36.888Z,97307.88
2022-08-24T23:19:24.463Z,97303.38
2022-08-24T23:21:54.019Z,97301.56
2022-08-24T23:24:22.616Z,97297.34
2022-08-24T23:26:51.167Z,97294.81
2022-08-24T23:29:19.727Z,97281.13
2022-08-24T23:31:48.229Z,97286.97
2022-08-24T23:34:16.899Z,97280.81
2022-08-24T23:36:46.324Z,97282.84
2022-08-24T23:39:14.944Z,97284.28
2022-08-24T23:41:46.113Z,97283.53
2022-08-24T23:44:16.983Z,97285.72
2022-08-24T23:46:45.730Z,97280.13
2022-08-24T23:49:15.366Z,97283.75
2022-08-24T23:51:43.734Z,97289.66
2022-08-24T23:54:12.404Z,97284.09
2022-08-24T23:56:42.150Z,97286.91
2022-08-24T23:59:13.021Z,97286.75
